• Join FlightAware (Why Join?)
  • Login
  • US Flag 
06:44PM EST


 

Airport Tracker/Info


-or-


 

Live Flight TrackerFlight Track Log ✈ ELO3908 ✈ 09-Oct-2013 ✈ EPKK / KRK - EPWA / WAW

Flight Track Log - Related Links

Times and Time Zones

All times are in EDT time to prevent confusion due to time zone crossing. See the ELO3908 flight status page for this flight to view local times or setup timezone preferences in your user account.

Time Position Orientation Groundspeed Altitude Reporting Facility
EDT Latitude Longitude Course Direction KTS MPH feet Rate Location/Type
10:39AM 50.5598 20.0478 19° North  Level Estimated
10:40AM 50.6401 20.0922 19° North  Level Estimated
10:41AM 50.7203 20.1367 19° North  Level Estimated
10:42AM 50.8006 20.1814 19° North  Level Estimated
10:43AM 50.8808 20.2262 19° North  Level Estimated
10:44AM 50.9610 20.2712 19° North  Level Estimated
10:45AM 51.0412 20.3163 19° North  Level Estimated
10:46AM 51.1214 20.3616 20° North  Level Estimated
10:47AM 51.2016 20.4070 20° North  Level Estimated
10:48AM 51.2817 20.4526 20° North  Level Estimated
10:49AM 51.3619 20.4984 20° North  Level Estimated
10:50AM 51.4420 20.5443 20° North  Level Estimated
10:51AM 51.5220 20.5904 20° North  Level Estimated
10:52AM 51.6021 20.6366 20° North  Level Estimated
10:53AM 51.6822 20.6830 20° North  Level Estimated
10:54AM 51.7622 20.7296 20° North  Level Estimated
10:55AM 51.8422 20.7763 20° North  Level Estimated
10:56AM 51.9222 20.8232 20° North  Level Estimated
10:57AM 52.0022 20.8703 20° North  Level Estimated
10:58AM 52.0822 20.9175 20° North  Level Estimated
10:59AM 52.1621 20.9650 20° North  Level Estimated
11:00AM 52.1657 20.9671 20° North  Level Estimated
11:01AM 52.1657 20.9671 90° East  Level Estimated
11:02AM 52.1657 20.9671 90° East  Level Estimated
11:03AM 52.1657 20.9671 90° East  Level Estimated
11:04AM 52.1657 20.9671 90° East  Level Estimated
11:05AM 52.1657 20.9671 90° East  Level Estimated
11:06AM 52.1657 20.9671 90° East  Level Estimated
11:07AM 52.1657 20.9671 90° East  Level Estimated